LiveATC.Net - Listen to live air traffic control over the Internet!


ICAO: VHHH  IATA: HKG   Airport: Hong Kong International - Chek Lap Kok
City: Hong Kong
Country: Hong Kong   Continent: Asia
VHHH METAR Weather: VHHH 152200Z 10003KT 9999 FEW015 29/25 Q1006 TEMPO 4000 SHRA
VHHH Flight Activity (FlightAware)
VHHH Webcam:  (Airport Webcams) 

VHHH App/Dep/Dir/Zone
Feed Status: UP   Listeners: 2
Listen in your browser - HTML5 player (in browser, HTML5)
Click here to listen with your own player (launches your MP3 player)
Archive Access: VHHH App/Dep/Dir/Zone
FacilityFrequency
Emergency/Guard121.500
Hong Kong Approach119.100
Hong Kong Approach119.350
Hong Kong Departure122.000
Hong Kong Departure123.800
Hong Kong Departure124.050
Hong Kong Director119.350
Hong Kong Director119.500
Hong Kong Zone120.600

NOTICE

Unauthorized use prohibited. See LiveATC.net Terms of Service


Airport/ARTCC Code
Frequency Search
(e.g., 124.400, 128.75)
Site-wide search
 


Browse Feeds
Top 50 Feeds
HF Oceanic Feeds
Coverage Map
Bad Weather Areas

LiveATC FAQ
Offer LiveATC feed
Contact LiveATC.net
Press Inquiries

LiveATC on iPhone
LiveATC on Android

LiveATC Mobile
(Mobile browser)

ATC Audio Archives
Interesting Recordings

LiveATC Forums


Home Page
About LiveATC.net


Terms of Use
Privacy Policy

AIRMETs/SIGMETs

FAA Airport Status
NAS Status
Arrival Demand


Server Software By:
Icecast.org
Liquidsoap